sensor_id;sensor_type;location;lat;lon;timestamp;P1;durP1;ratioP1;P2;durP2;ratioP2
18532;SDS011;9396;51.510;11.934;2023-03-30T00:01:53;5.93;;;2.77;;
18532;SDS011;9396;51.510;11.934;2023-03-30T00:04:20;5.40;;;2.90;;
18532;SDS011;9396;51.510;11.934;2023-03-30T00:06:51;3.43;;;2.43;;
18532;SDS011;9396;51.510;11.934;2023-03-30T00:09:19;3.47;;;2.80;;
18532;SDS011;9396;51.510;11.934;2023-03-30T00:11:47;4.83;;;2.80;;
18532;SDS011;9396;51.510;11.934;2023-03-30T00:14:14;6.23;;;2.50;;
18532;SDS011;9396;51.510;11.934;2023-03-30T00:16:42;6.83;;;2.70;;
18532;SDS011;9396;51.510;11.934;2023-03-30T00:19:08;4.10;;;2.67;;
18532;SDS011;9396;51.510;11.934;2023-03-30T00:21:35;5.40;;;2.97;;
18532;SDS011;9396;51.510;11.934;2023-03-30T00:24:02;2.73;;;2.50;;
18532;SDS011;9396;51.510;11.934;2023-03-30T00:26:30;3.97;;;2.90;;
18532;SDS011;9396;51.510;11.934;2023-03-30T00:28:57;3.80;;;2.63;;
18532;SDS011;9396;51.510;11.934;2023-03-30T00:31:23;5.03;;;2.80;;
18532;SDS011;9396;51.510;11.934;2023-03-30T00:33:50;8.63;;;3.30;;
18532;SDS011;9396;51.510;11.934;2023-03-30T00:36:17;4.20;;;3.00;;
18532;SDS011;9396;51.510;11.934;2023-03-30T00:38:43;4.23;;;3.20;;
18532;SDS011;9396;51.510;11.934;2023-03-30T00:41:12;4.33;;;3.13;;
18532;SDS011;9396;51.510;11.934;2023-03-30T00:43:56;4.40;;;2.90;;
18532;SDS011;9396;51.510;11.934;2023-03-30T00:46:25;5.57;;;3.27;;
18532;SDS011;9396;51.510;11.934;2023-03-30T00:48:53;4.93;;;2.70;;
18532;SDS011;9396;51.510;11.934;2023-03-30T00:51:23;6.53;;;2.93;;
18532;SDS011;9396;51.510;11.934;2023-03-30T00:53:51;6.10;;;3.07;;
18532;SDS011;9396;51.510;11.934;2023-03-30T00:56:22;6.60;;;3.10;;
18532;SDS011;9396;51.510;11.934;2023-03-30T00:58:54;4.00;;;2.77;;
18532;SDS011;9396;51.510;11.934;2023-03-30T01:01:22;4.80;;;3.00;;
18532;SDS011;9396;51.510;11.934;2023-03-30T01:03:52;5.03;;;3.03;;
18532;SDS011;9396;51.510;11.934;2023-03-30T01:06:22;4.93;;;2.80;;
18532;SDS011;9396;51.510;11.934;2023-03-30T01:08:54;4.47;;;3.00;;
18532;SDS011;9396;51.510;11.934;2023-03-30T01:11:22;3.20;;;2.57;;
18532;SDS011;9396;51.510;11.934;2023-03-30T01:13:51;4.13;;;2.87;;
18532;SDS011;9396;51.510;11.934;2023-03-30T01:16:26;3.97;;;2.97;;
18532;SDS011;9396;51.510;11.934;2023-03-30T01:18:57;5.70;;;2.67;;
18532;SDS011;9396;51.510;11.934;2023-03-30T01:24:51;3.80;;;3.00;;
18532;SDS011;9396;51.510;11.934;2023-03-30T01:27:56;6.17;;;3.50;;
18532;SDS011;9396;51.510;11.934;2023-03-30T01:30:43;3.60;;;2.90;;
18532;SDS011;9396;51.510;11.934;2023-03-30T01:33:32;5.40;;;2.63;;
18532;SDS011;9396;51.510;11.934;2023-03-30T01:36:35;9.50;;;3.00;;
18532;SDS011;9396;51.510;11.934;2023-03-30T01:39:16;4.83;;;3.10;;
18532;SDS011;9396;51.510;11.934;2023-03-30T01:41:49;8.17;;;3.73;;
18532;SDS011;9396;51.510;11.934;2023-03-30T01:44:26;3.83;;;3.13;;
18532;SDS011;9396;51.510;11.934;2023-03-30T01:46:59;5.17;;;3.17;;
18532;SDS011;9396;51.510;11.934;2023-03-30T01:49:35;5.37;;;3.30;;
18532;SDS011;9396;51.510;11.934;2023-03-30T01:52:08;5.57;;;3.50;;
18532;SDS011;9396;51.510;11.934;2023-03-30T01:54:42;5.83;;;3.40;;
18532;SDS011;9396;51.510;11.934;2023-03-30T01:57:14;4.40;;;3.27;;
18532;SDS011;9396;51.510;11.934;2023-03-30T01:59:45;5.23;;;3.13;;
18532;SDS011;9396;51.510;11.934;2023-03-30T02:02:18;4.93;;;3.33;;
18532;SDS011;9396;51.510;11.934;2023-03-30T02:04:48;6.37;;;3.60;;
18532;SDS011;9396;51.510;11.934;2023-03-30T02:07:19;4.47;;;3.30;;
18532;SDS011;9396;51.510;11.934;2023-03-30T02:09:50;4.77;;;3.40;;
18532;SDS011;9396;51.510;11.934;2023-03-30T02:12:20;7.00;;;3.27;;
18532;SDS011;9396;51.510;11.934;2023-03-30T02:14:49;6.13;;;3.37;;
18532;SDS011;9396;51.510;11.934;2023-03-30T02:17:20;4.10;;;3.20;;
18532;SDS011;9396;51.510;11.934;2023-03-30T02:19:48;4.87;;;3.33;;
18532;SDS011;9396;51.510;11.934;2023-03-30T02:22:17;5.03;;;3.40;;
18532;SDS011;9396;51.510;11.934;2023-03-30T02:24:45;4.60;;;3.20;;
18532;SDS011;9396;51.510;11.934;2023-03-30T02:27:17;8.90;;;3.33;;
18532;SDS011;9396;51.510;11.934;2023-03-30T02:29:44;7.07;;;3.60;;
18532;SDS011;9396;51.510;11.934;2023-03-30T02:32:13;4.43;;;2.90;;
18532;SDS011;9396;51.510;11.934;2023-03-30T02:34:46;6.10;;;3.20;;
18532;SDS011;9396;51.510;11.934;2023-03-30T02:37:39;3.63;;;2.60;;
18532;SDS011;9396;51.510;11.934;2023-03-30T02:40:20;6.90;;;3.40;;
18532;SDS011;9396;51.510;11.934;2023-03-30T02:43:10;3.27;;;2.90;;
18532;SDS011;9396;51.510;11.934;2023-03-30T02:45:50;4.40;;;3.23;;
18532;SDS011;9396;51.510;11.934;2023-03-30T02:48:22;7.07;;;3.03;;
18532;SDS011;9396;51.510;11.934;2023-03-30T02:50:59;5.27;;;3.20;;
18532;SDS011;9396;51.510;11.934;2023-03-30T02:53:37;6.97;;;3.40;;
18532;SDS011;9396;51.510;11.934;2023-03-30T02:56:12;5.87;;;3.13;;
18532;SDS011;9396;51.510;11.934;2023-03-30T02:58:45;6.23;;;3.10;;
18532;SDS011;9396;51.510;11.934;2023-03-30T03:01:18;4.53;;;3.43;;
18532;SDS011;9396;51.510;11.934;2023-03-30T03:03:54;6.63;;;3.23;;
18532;SDS011;9396;51.510;11.934;2023-03-30T03:06:23;4.43;;;3.23;;
18532;SDS011;9396;51.510;11.934;2023-03-30T03:08:51;5.30;;;3.17;;
18532;SDS011;9396;51.510;11.934;2023-03-30T03:11:19;4.70;;;3.07;;
18532;SDS011;9396;51.510;11.934;2023-03-30T03:13:47;5.60;;;3.87;;
18532;SDS011;9396;51.510;11.934;2023-03-30T03:16:14;5.83;;;3.17;;
18532;SDS011;9396;51.510;11.934;2023-03-30T03:18:41;5.20;;;3.10;;
18532;SDS011;9396;51.510;11.934;2023-03-30T03:21:09;5.40;;;3.40;;
18532;SDS011;9396;51.510;11.934;2023-03-30T03:23:37;5.10;;;3.30;;
18532;SDS011;9396;51.510;11.934;2023-03-30T03:26:03;6.37;;;3.80;;
18532;SDS011;9396;51.510;11.934;2023-03-30T03:28:31;5.13;;;3.53;;
18532;SDS011;9396;51.510;11.934;2023-03-30T03:30:59;4.23;;;2.90;;
18532;SDS011;9396;51.510;11.934;2023-03-30T03:33:26;5.80;;;3.50;;
18532;SDS011;9396;51.510;11.934;2023-03-30T03:35:53;6.50;;;3.63;;
18532;SDS011;9396;51.510;11.934;2023-03-30T03:38:24;5.00;;;3.23;;
18532;SDS011;9396;51.510;11.934;2023-03-30T03:40:51;4.83;;;3.50;;
18532;SDS011;9396;51.510;11.934;2023-03-30T03:43:19;4.73;;;3.10;;
18532;SDS011;9396;51.510;11.934;2023-03-30T03:45:47;5.27;;;3.03;;
18532;SDS011;9396;51.510;11.934;2023-03-30T03:48:17;5.77;;;3.53;;
18532;SDS011;9396;51.510;11.934;2023-03-30T03:50:47;6.40;;;3.70;;
18532;SDS011;9396;51.510;11.934;2023-03-30T03:53:15;5.27;;;3.40;;
18532;SDS011;9396;51.510;11.934;2023-03-30T03:55:42;5.90;;;3.23;;
18532;SDS011;9396;51.510;11.934;2023-03-30T03:58:09;5.73;;;3.67;;
18532;SDS011;9396;51.510;11.934;2023-03-30T04:00:36;5.00;;;3.40;;
18532;SDS011;9396;51.510;11.934;2023-03-30T04:03:02;7.23;;;3.80;;
18532;SDS011;9396;51.510;11.934;2023-03-30T04:05:31;5.87;;;3.63;;
18532;SDS011;9396;51.510;11.934;2023-03-30T04:07:57;6.37;;;4.17;;
18532;SDS011;9396;51.510;11.934;2023-03-30T04:10:24;5.90;;;3.50;;
18532;SDS011;9396;51.510;11.934;2023-03-30T04:12:50;5.07;;;3.47;;
18532;SDS011;9396;51.510;11.934;2023-03-30T04:15:20;6.27;;;3.53;;
18532;SDS011;9396;51.510;11.934;2023-03-30T04:17:47;6.83;;;3.43;;
18532;SDS011;9396;51.510;11.934;2023-03-30T04:20:14;5.60;;;3.73;;
18532;SDS011;9396;51.510;11.934;2023-03-30T04:22:43;5.67;;;3.30;;
18532;SDS011;9396;51.510;11.934;2023-03-30T04:25:10;6.47;;;3.70;;
18532;SDS011;9396;51.510;11.934;2023-03-30T04:27:39;7.80;;;3.77;;
18532;SDS011;9396;51.510;11.934;2023-03-30T04:30:07;5.83;;;3.50;;
18532;SDS011;9396;51.510;11.934;2023-03-30T04:32:34;7.10;;;3.30;;
18532;SDS011;9396;51.510;11.934;2023-03-30T04:35:02;4.83;;;3.53;;
18532;SDS011;9396;51.510;11.934;2023-03-30T04:37:30;5.03;;;3.30;;
18532;SDS011;9396;51.510;11.934;2023-03-30T04:39:58;5.80;;;3.23;;
18532;SDS011;9396;51.510;11.934;2023-03-30T04:42:26;5.40;;;3.30;;
18532;SDS011;9396;51.510;11.934;2023-03-30T04:44:58;5.73;;;3.37;;
18532;SDS011;9396;51.510;11.934;2023-03-30T04:47:25;6.57;;;3.27;;
18532;SDS011;9396;51.510;11.934;2023-03-30T04:49:52;12.03;;;3.30;;
18532;SDS011;9396;51.510;11.934;2023-03-30T04:52:19;6.03;;;3.27;;
18532;SDS011;9396;51.510;11.934;2023-03-30T04:54:46;6.80;;;3.57;;
18532;SDS011;9396;51.510;11.934;2023-03-30T04:57:14;7.57;;;3.63;;
18532;SDS011;9396;51.510;11.934;2023-03-30T04:59:41;6.77;;;3.23;;
18532;SDS011;9396;51.510;11.934;2023-03-30T05:02:09;6.27;;;3.80;;
18532;SDS011;9396;51.510;11.934;2023-03-30T05:04:37;5.67;;;3.73;;
18532;SDS011;9396;51.510;11.934;2023-03-30T05:07:04;5.37;;;3.30;;
18532;SDS011;9396;51.510;11.934;2023-03-30T05:09:32;7.70;;;3.43;;
18532;SDS011;9396;51.510;11.934;2023-03-30T05:11:59;4.43;;;3.30;;
18532;SDS011;9396;51.510;11.934;2023-03-30T05:14:27;7.33;;;3.30;;
18532;SDS011;9396;51.510;11.934;2023-03-30T05:16:53;4.20;;;3.20;;
18532;SDS011;9396;51.510;11.934;2023-03-30T05:19:20;9.80;;;3.50;;
18532;SDS011;9396;51.510;11.934;2023-03-30T05:21:47;8.57;;;3.27;;
18532;SDS011;9396;51.510;11.934;2023-03-30T05:24:14;9.63;;;2.80;;
18532;SDS011;9396;51.510;11.934;2023-03-30T05:26:40;6.43;;;3.10;;
18532;SDS011;9396;51.510;11.934;2023-03-30T05:29:07;6.30;;;2.97;;
18532;SDS011;9396;51.510;11.934;2023-03-30T05:31:35;5.50;;;2.90;;
18532;SDS011;9396;51.510;11.934;2023-03-30T05:34:02;4.40;;;2.73;;
18532;SDS011;9396;51.510;11.934;2023-03-30T05:36:29;7.20;;;2.53;;
18532;SDS011;9396;51.510;11.934;2023-03-30T05:38:56;4.60;;;2.93;;
18532;SDS011;9396;51.510;11.934;2023-03-30T05:41:22;4.53;;;2.40;;
18532;SDS011;9396;51.510;11.934;2023-03-30T05:43:51;6.23;;;3.10;;
18532;SDS011;9396;51.510;11.934;2023-03-30T05:46:18;7.93;;;2.67;;
18532;SDS011;9396;51.510;11.934;2023-03-30T05:48:46;8.57;;;2.87;;
18532;SDS011;9396;51.510;11.934;2023-03-30T05:51:13;5.17;;;2.60;;
18532;SDS011;9396;51.510;11.934;2023-03-30T05:53:40;5.00;;;2.43;;
18532;SDS011;9396;51.510;11.934;2023-03-30T05:56:06;8.93;;;2.97;;
18532;SDS011;9396;51.510;11.934;2023-03-30T05:58:34;8.70;;;2.83;;
18532;SDS011;9396;51.510;11.934;2023-03-30T06:01:01;6.60;;;2.70;;
18532;SDS011;9396;51.510;11.934;2023-03-30T06:03:29;10.10;;;3.17;;
18532;SDS011;9396;51.510;11.934;2023-03-30T06:05:57;6.00;;;2.43;;
18532;SDS011;9396;51.510;11.934;2023-03-30T06:08:24;5.93;;;2.60;;
18532;SDS011;9396;51.510;11.934;2023-03-30T06:10:51;5.00;;;2.40;;
18532;SDS011;9396;51.510;11.934;2023-03-30T06:13:19;5.73;;;2.47;;
18532;SDS011;9396;51.510;11.934;2023-03-30T06:15:45;8.17;;;2.77;;
18532;SDS011;9396;51.510;11.934;2023-03-30T06:18:12;7.10;;;2.23;;
18532;SDS011;9396;51.510;11.934;2023-03-30T06:20:39;6.27;;;2.53;;
18532;SDS011;9396;51.510;11.934;2023-03-30T06:23:07;9.80;;;2.40;;
18532;SDS011;9396;51.510;11.934;2023-03-30T06:25:34;7.63;;;2.37;;
18532;SDS011;9396;51.510;11.934;2023-03-30T06:28:01;4.27;;;2.10;;
18532;SDS011;9396;51.510;11.934;2023-03-30T06:30:27;6.83;;;2.00;;
18532;SDS011;9396;51.510;11.934;2023-03-30T06:32:54;4.47;;;1.77;;
18532;SDS011;9396;51.510;11.934;2023-03-30T06:35:21;5.17;;;2.00;;
18532;SDS011;9396;51.510;11.934;2023-03-30T06:37:47;6.57;;;2.00;;
18532;SDS011;9396;51.510;11.934;2023-03-30T06:40:15;7.77;;;2.03;;
18532;SDS011;9396;51.510;11.934;2023-03-30T06:42:43;3.10;;;1.93;;
18532;SDS011;9396;51.510;11.934;2023-03-30T06:45:10;5.27;;;2.27;;
18532;SDS011;9396;51.510;11.934;2023-03-30T06:47:36;9.80;;;2.30;;
18532;SDS011;9396;51.510;11.934;2023-03-30T06:50:05;4.13;;;2.20;;
18532;SDS011;9396;51.510;11.934;2023-03-30T06:52:33;4.33;;;1.80;;
18532;SDS011;9396;51.510;11.934;2023-03-30T06:55:00;7.90;;;2.00;;
18532;SDS011;9396;51.510;11.934;2023-03-30T06:57:28;9.73;;;2.10;;
18532;SDS011;9396;51.510;11.934;2023-03-30T06:59:55;6.10;;;1.97;;
18532;SDS011;9396;51.510;11.934;2023-03-30T07:02:21;10.03;;;2.40;;
18532;SDS011;9396;51.510;11.934;2023-03-30T07:04:49;7.63;;;2.10;;
18532;SDS011;9396;51.510;11.934;2023-03-30T07:07:16;4.20;;;1.83;;
18532;SDS011;9396;51.510;11.934;2023-03-30T07:09:44;7.27;;;2.03;;
18532;SDS011;9396;51.510;11.934;2023-03-30T07:12:11;9.23;;;2.53;;
18532;SDS011;9396;51.510;11.934;2023-03-30T07:14:39;7.70;;;2.47;;
18532;SDS011;9396;51.510;11.934;2023-03-30T07:17:06;8.47;;;2.33;;
18532;SDS011;9396;51.510;11.934;2023-03-30T07:19:33;6.13;;;2.10;;
18532;SDS011;9396;51.510;11.934;2023-03-30T07:22:00;7.87;;;2.83;;
18532;SDS011;9396;51.510;11.934;2023-03-30T07:24:27;6.70;;;2.00;;
18532;SDS011;9396;51.510;11.934;2023-03-30T07:26:55;6.70;;;2.10;;
18532;SDS011;9396;51.510;11.934;2023-03-30T07:29:21;7.03;;;2.30;;
18532;SDS011;9396;51.510;11.934;2023-03-30T07:31:49;7.60;;;2.50;;
18532;SDS011;9396;51.510;11.934;2023-03-30T07:34:16;5.23;;;2.40;;
18532;SDS011;9396;51.510;11.934;2023-03-30T07:36:43;4.97;;;2.20;;
18532;SDS011;9396;51.510;11.934;2023-03-30T07:39:09;6.30;;;2.10;;
18532;SDS011;9396;51.510;11.934;2023-03-30T07:41:36;9.80;;;2.60;;
18532;SDS011;9396;51.510;11.934;2023-03-30T07:44:03;5.83;;;2.57;;
18532;SDS011;9396;51.510;11.934;2023-03-30T07:46:29;10.67;;;2.17;;
18532;SDS011;9396;51.510;11.934;2023-03-30T07:48:57;8.07;;;2.17;;
18532;SDS011;9396;51.510;11.934;2023-03-30T07:51:24;8.67;;;2.53;;
18532;SDS011;9396;51.510;11.934;2023-03-30T07:53:51;6.43;;;2.47;;
18532;SDS011;9396;51.510;11.934;2023-03-30T07:56:17;8.13;;;2.50;;
18532;SDS011;9396;51.510;11.934;2023-03-30T07:58:44;11.37;;;2.67;;
18532;SDS011;9396;51.510;11.934;2023-03-30T08:01:11;6.90;;;2.10;;
18532;SDS011;9396;51.510;11.934;2023-03-30T08:03:38;6.13;;;2.20;;
18532;SDS011;9396;51.510;11.934;2023-03-30T08:06:06;8.13;;;2.37;;
18532;SDS011;9396;51.510;11.934;2023-03-30T08:08:35;7.77;;;2.30;;
18532;SDS011;9396;51.510;11.934;2023-03-30T08:11:05;6.27;;;2.10;;
18532;SDS011;9396;51.510;11.934;2023-03-30T08:13:33;5.23;;;2.17;;
18532;SDS011;9396;51.510;11.934;2023-03-30T08:16:01;6.87;;;2.67;;
18532;SDS011;9396;51.510;11.934;2023-03-30T08:18:27;4.73;;;2.23;;
18532;SDS011;9396;51.510;11.934;2023-03-30T08:20:54;4.70;;;2.20;;
18532;SDS011;9396;51.510;11.934;2023-03-30T08:23:22;8.80;;;2.60;;
18532;SDS011;9396;51.510;11.934;2023-03-30T08:25:49;5.27;;;2.33;;
18532;SDS011;9396;51.510;11.934;2023-03-30T08:28:17;8.73;;;2.40;;
18532;SDS011;9396;51.510;11.934;2023-03-30T08:30:44;8.40;;;2.80;;
18532;SDS011;9396;51.510;11.934;2023-03-30T08:33:11;10.97;;;2.93;;
18532;SDS011;9396;51.510;11.934;2023-03-30T08:35:38;5.73;;;2.27;;
18532;SDS011;9396;51.510;11.934;2023-03-30T08:38:05;5.23;;;2.67;;
18532;SDS011;9396;51.510;11.934;2023-03-30T08:40:38;5.23;;;2.67;;
18532;SDS011;9396;51.510;11.934;2023-03-30T08:46:10;7.00;;;2.80;;
18532;SDS011;9396;51.510;11.934;2023-03-30T08:48:39;7.53;;;2.60;;
18532;SDS011;9396;51.510;11.934;2023-03-30T08:51:07;9.30;;;3.00;;
18532;SDS011;9396;51.510;11.934;2023-03-30T08:53:41;9.40;;;2.50;;
18532;SDS011;9396;51.510;11.934;2023-03-30T08:56:09;5.40;;;2.23;;
18532;SDS011;9396;51.510;11.934;2023-03-30T08:58:43;5.93;;;2.20;;
18532;SDS011;9396;51.510;11.934;2023-03-30T09:01:17;5.17;;;2.30;;
18532;SDS011;9396;51.510;11.934;2023-03-30T09:03:55;8.03;;;2.73;;
18532;SDS011;9396;51.510;11.934;2023-03-30T09:06:29;6.17;;;2.37;;
18532;SDS011;9396;51.510;11.934;2023-03-30T09:09:06;6.87;;;2.23;;
18532;SDS011;9396;51.510;11.934;2023-03-30T09:11:36;8.40;;;2.37;;
18532;SDS011;9396;51.510;11.934;2023-03-30T09:14:04;7.80;;;2.47;;
18532;SDS011;9396;51.510;11.934;2023-03-30T09:16:34;4.83;;;2.40;;
18532;SDS011;9396;51.510;11.934;2023-03-30T09:19:10;9.90;;;2.37;;
18532;SDS011;9396;51.510;11.934;2023-03-30T09:21:44;4.73;;;2.53;;
18532;SDS011;9396;51.510;11.934;2023-03-30T09:24:11;5.80;;;2.63;;
18532;SDS011;9396;51.510;11.934;2023-03-30T09:26:43;9.53;;;3.57;;
18532;SDS011;9396;51.510;11.934;2023-03-30T09:29:17;6.30;;;2.93;;
18532;SDS011;9396;51.510;11.934;2023-03-30T09:31:47;5.23;;;2.40;;
18532;SDS011;9396;51.510;11.934;2023-03-30T09:34:21;6.67;;;2.90;;
18532;SDS011;9396;51.510;11.934;2023-03-30T09:36:53;6.87;;;2.53;;
18532;SDS011;9396;51.510;11.934;2023-03-30T09:39:23;6.23;;;2.50;;
18532;SDS011;9396;51.510;11.934;2023-03-30T09:41:55;15.13;;;3.80;;
18532;SDS011;9396;51.510;11.934;2023-03-30T09:44:33;6.53;;;2.43;;
18532;SDS011;9396;51.510;11.934;2023-03-30T09:47:08;5.57;;;2.57;;
18532;SDS011;9396;51.510;11.934;2023-03-30T09:49:44;7.03;;;2.50;;
18532;SDS011;9396;51.510;11.934;2023-03-30T09:52:13;5.33;;;2.60;;
18532;SDS011;9396;51.510;11.934;2023-03-30T09:54:45;15.27;;;2.90;;
18532;SDS011;9396;51.510;11.934;2023-03-30T09:57:22;5.20;;;2.53;;
18532;SDS011;9396;51.510;11.934;2023-03-30T09:59:51;6.20;;;2.83;;
18532;SDS011;9396;51.510;11.934;2023-03-30T10:02:19;12.20;;;3.23;;
18532;SDS011;9396;51.510;11.934;2023-03-30T10:04:55;5.47;;;2.20;;
18532;SDS011;9396;51.510;11.934;2023-03-30T10:07:25;5.90;;;2.03;;
18532;SDS011;9396;51.510;11.934;2023-03-30T10:09:54;11.27;;;2.50;;
18532;SDS011;9396;51.510;11.934;2023-03-30T10:12:24;6.13;;;2.40;;
18532;SDS011;9396;51.510;11.934;2023-03-30T10:14:53;6.73;;;2.50;;
18532;SDS011;9396;51.510;11.934;2023-03-30T10:17:21;9.87;;;2.23;;
18532;SDS011;9396;51.510;11.934;2023-03-30T10:19:50;6.33;;;2.30;;
18532;SDS011;9396;51.510;11.934;2023-03-30T10:22:18;10.37;;;2.30;;
18532;SDS011;9396;51.510;11.934;2023-03-30T10:24:48;6.57;;;2.30;;
18532;SDS011;9396;51.510;11.934;2023-03-30T10:27:16;7.17;;;2.00;;
18532;SDS011;9396;51.510;11.934;2023-03-30T10:29:45;9.27;;;2.17;;
18532;SDS011;9396;51.510;11.934;2023-03-30T10:32:16;7.20;;;2.00;;
18532;SDS011;9396;51.510;11.934;2023-03-30T10:34:46;7.33;;;2.20;;
18532;SDS011;9396;51.510;11.934;2023-03-30T10:37:17;7.00;;;2.67;;
18532;SDS011;9396;51.510;11.934;2023-03-30T10:39:48;8.13;;;2.13;;
18532;SDS011;9396;51.510;11.934;2023-03-30T10:42:17;13.60;;;2.80;;
18532;SDS011;9396;51.510;11.934;2023-03-30T10:44:50;8.17;;;2.20;;
18532;SDS011;9396;51.510;11.934;2023-03-30T10:47:24;4.10;;;1.97;;
18532;SDS011;9396;51.510;11.934;2023-03-30T10:50:02;8.07;;;2.40;;
18532;SDS011;9396;51.510;11.934;2023-03-30T10:52:37;6.23;;;2.47;;
18532;SDS011;9396;51.510;11.934;2023-03-30T10:55:16;4.23;;;2.70;;
18532;SDS011;9396;51.510;11.934;2023-03-30T10:57:50;5.93;;;2.00;;
18532;SDS011;9396;51.510;11.934;2023-03-30T11:00:36;6.47;;;2.30;;
18532;SDS011;9396;51.510;11.934;2023-03-30T11:03:15;6.37;;;2.10;;
18532;SDS011;9396;51.510;11.934;2023-03-30T11:05:47;7.90;;;2.17;;
18532;SDS011;9396;51.510;11.934;2023-03-30T11:08:18;6.37;;;2.20;;
18532;SDS011;9396;51.510;11.934;2023-03-30T11:10:47;5.00;;;2.40;;
18532;SDS011;9396;51.510;11.934;2023-03-30T11:13:18;12.13;;;2.40;;
18532;SDS011;9396;51.510;11.934;2023-03-30T11:15:52;5.23;;;2.37;;
18532;SDS011;9396;51.510;11.934;2023-03-30T11:18:20;6.73;;;2.60;;
18532;SDS011;9396;51.510;11.934;2023-03-30T11:20:52;10.27;;;2.60;;
18532;SDS011;9396;51.510;11.934;2023-03-30T11:23:35;7.10;;;2.17;;
18532;SDS011;9396;51.510;11.934;2023-03-30T11:26:09;6.97;;;2.43;;
18532;SDS011;9396;51.510;11.934;2023-03-30T11:28:42;12.40;;;2.50;;
18532;SDS011;9396;51.510;11.934;2023-03-30T11:31:25;7.43;;;2.13;;
18532;SDS011;9396;51.510;11.934;2023-03-30T11:33:59;5.50;;;2.20;;
18532;SDS011;9396;51.510;11.934;2023-03-30T11:36:33;4.40;;;2.03;;
18532;SDS011;9396;51.510;11.934;2023-03-30T11:39:03;7.10;;;2.37;;
18532;SDS011;9396;51.510;11.934;2023-03-30T11:41:37;5.47;;;2.37;;
18532;SDS011;9396;51.510;11.934;2023-03-30T11:44:08;5.83;;;2.10;;
18532;SDS011;9396;51.510;11.934;2023-03-30T11:46:39;4.43;;;2.20;;
18532;SDS011;9396;51.510;11.934;2023-03-30T11:49:17;5.37;;;1.87;;
18532;SDS011;9396;51.510;11.934;2023-03-30T11:52:05;5.37;;;2.57;;
18532;SDS011;9396;51.510;11.934;2023-03-30T11:54:46;5.10;;;1.90;;
18532;SDS011;9396;51.510;11.934;2023-03-30T11:57:22;7.53;;;1.90;;
18532;SDS011;9396;51.510;11.934;2023-03-30T12:00:00;3.27;;;1.70;;
18532;SDS011;9396;51.510;11.934;2023-03-30T12:02:45;5.77;;;1.60;;
18532;SDS011;9396;51.510;11.934;2023-03-30T12:05:20;7.63;;;2.63;;
18532;SDS011;9396;51.510;11.934;2023-03-30T12:07:56;5.53;;;1.80;;
18532;SDS011;9396;51.510;11.934;2023-03-30T12:10:30;6.20;;;1.73;;
18532;SDS011;9396;51.510;11.934;2023-03-30T12:13:02;6.03;;;1.77;;
18532;SDS011;9396;51.510;11.934;2023-03-30T12:15:30;5.43;;;1.93;;
18532;SDS011;9396;51.510;11.934;2023-03-30T12:18:10;5.97;;;2.20;;
18532;SDS011;9396;51.510;11.934;2023-03-30T12:20:45;5.03;;;1.97;;
18532;SDS011;9396;51.510;11.934;2023-03-30T12:23:20;6.50;;;2.10;;
18532;SDS011;9396;51.510;11.934;2023-03-30T12:26:03;8.33;;;2.50;;
18532;SDS011;9396;51.510;11.934;2023-03-30T12:28:45;3.43;;;1.50;;
18532;SDS011;9396;51.510;11.934;2023-03-30T12:31:13;8.23;;;2.00;;
18532;SDS011;9396;51.510;11.934;2023-03-30T12:33:45;12.77;;;2.23;;
18532;SDS011;9396;51.510;11.934;2023-03-30T12:36:24;2.57;;;1.50;;
18532;SDS011;9396;51.510;11.934;2023-03-30T12:38:58;6.37;;;1.83;;
18532;SDS011;9396;51.510;11.934;2023-03-30T12:41:26;5.50;;;1.60;;
18532;SDS011;9396;51.510;11.934;2023-03-30T12:47:03;4.57;;;1.60;;
18532;SDS011;9396;51.510;11.934;2023-03-30T12:49:48;5.87;;;1.53;;
18532;SDS011;9396;51.510;11.934;2023-03-30T12:52:24;6.57;;;2.27;;
18532;SDS011;9396;51.510;11.934;2023-03-30T12:55:12;6.03;;;1.43;;
18532;SDS011;9396;51.510;11.934;2023-03-30T12:57:56;6.23;;;1.63;;
18532;SDS011;9396;51.510;11.934;2023-03-30T13:00:37;10.93;;;1.77;;
18532;SDS011;9396;51.510;11.934;2023-03-30T13:03:19;4.20;;;1.70;;
18532;SDS011;9396;51.510;11.934;2023-03-30T13:06:20;6.70;;;1.70;;
18532;SDS011;9396;51.510;11.934;2023-03-30T13:08:52;5.47;;;1.50;;
18532;SDS011;9396;51.510;11.934;2023-03-30T13:11:21;5.30;;;1.53;;
18532;SDS011;9396;51.510;11.934;2023-03-30T13:13:52;9.63;;;1.60;;
18532;SDS011;9396;51.510;11.934;2023-03-30T13:19:19;3.87;;;1.53;;
18532;SDS011;9396;51.510;11.934;2023-03-30T13:21:55;3.80;;;1.10;;
18532;SDS011;9396;51.510;11.934;2023-03-30T13:24:25;5.10;;;1.53;;
18532;SDS011;9396;51.510;11.934;2023-03-30T13:27:18;5.60;;;1.70;;
18532;SDS011;9396;51.510;11.934;2023-03-30T13:29:48;3.00;;;0.90;;
18532;SDS011;9396;51.510;11.934;2023-03-30T13:32:19;4.10;;;0.83;;
18532;SDS011;9396;51.510;11.934;2023-03-30T13:34:57;2.80;;;0.90;;
18532;SDS011;9396;51.510;11.934;2023-03-30T13:37:34;4.70;;;1.17;;
18532;SDS011;9396;51.510;11.934;2023-03-30T13:40:14;5.50;;;1.00;;
18532;SDS011;9396;51.510;11.934;2023-03-30T13:42:48;4.30;;;1.30;;
18532;SDS011;9396;51.510;11.934;2023-03-30T13:45:29;2.37;;;1.10;;
18532;SDS011;9396;51.510;11.934;2023-03-30T13:48:06;2.30;;;1.07;;
18532;SDS011;9396;51.510;11.934;2023-03-30T13:50:47;2.83;;;1.10;;
18532;SDS011;9396;51.510;11.934;2023-03-30T13:53:22;4.37;;;1.10;;
18532;SDS011;9396;51.510;11.934;2023-03-30T13:55:52;5.83;;;1.20;;
18532;SDS011;9396;51.510;11.934;2023-03-30T13:58:20;3.17;;;1.10;;
18532;SDS011;9396;51.510;11.934;2023-03-30T14:00:50;5.03;;;1.17;;
18532;SDS011;9396;51.510;11.934;2023-03-30T14:03:33;2.30;;;1.20;;
18532;SDS011;9396;51.510;11.934;2023-03-30T14:06:03;4.10;;;1.43;;
18532;SDS011;9396;51.510;11.934;2023-03-30T14:08:34;1.73;;;1.20;;
18532;SDS011;9396;51.510;11.934;2023-03-30T14:11:03;4.83;;;1.50;;
18532;SDS011;9396;51.510;11.934;2023-03-30T14:13:37;3.60;;;1.10;;
18532;SDS011;9396;51.510;11.934;2023-03-30T14:16:05;3.60;;;1.20;;
18532;SDS011;9396;51.510;11.934;2023-03-30T14:18:32;5.50;;;1.30;;
18532;SDS011;9396;51.510;11.934;2023-03-30T14:20:59;3.43;;;1.17;;
18532;SDS011;9396;51.510;11.934;2023-03-30T14:23:34;1.97;;;1.10;;
18532;SDS011;9396;51.510;11.934;2023-03-30T14:26:05;3.10;;;1.07;;
18532;SDS011;9396;51.510;11.934;2023-03-30T14:28:38;3.07;;;1.10;;
18532;SDS011;9396;51.510;11.934;2023-03-30T14:31:10;2.10;;;1.00;;
18532;SDS011;9396;51.510;11.934;2023-03-30T14:33:39;2.33;;;1.00;;
18532;SDS011;9396;51.510;11.934;2023-03-30T14:36:06;2.67;;;1.10;;
18532;SDS011;9396;51.510;11.934;2023-03-30T14:38:38;2.53;;;1.10;;
18532;SDS011;9396;51.510;11.934;2023-03-30T14:41:06;3.73;;;1.30;;
18532;SDS011;9396;51.510;11.934;2023-03-30T14:43:37;1.93;;;1.00;;
18532;SDS011;9396;51.510;11.934;2023-03-30T14:46:06;1.87;;;1.20;;
18532;SDS011;9396;51.510;11.934;2023-03-30T14:48:37;3.93;;;1.17;;
18532;SDS011;9396;51.510;11.934;2023-03-30T14:51:06;4.20;;;1.47;;
18532;SDS011;9396;51.510;11.934;2023-03-30T14:53:47;3.33;;;1.23;;
18532;SDS011;9396;51.510;11.934;2023-03-30T14:56:15;1.70;;;1.20;;
18532;SDS011;9396;51.510;11.934;2023-03-30T14:58:43;3.80;;;1.17;;
18532;SDS011;9396;51.510;11.934;2023-03-30T15:01:12;2.13;;;1.00;;
18532;SDS011;9396;51.510;11.934;2023-03-30T15:03:41;3.10;;;1.00;;
18532;SDS011;9396;51.510;11.934;2023-03-30T15:06:10;4.63;;;1.00;;
18532;SDS011;9396;51.510;11.934;2023-03-30T15:08:43;2.63;;;0.97;;
18532;SDS011;9396;51.510;11.934;2023-03-30T15:11:13;3.63;;;1.00;;
18532;SDS011;9396;51.510;11.934;2023-03-30T15:13:45;1.87;;;1.20;;
18532;SDS011;9396;51.510;11.934;2023-03-30T15:16:15;3.03;;;1.13;;
18532;SDS011;9396;51.510;11.934;2023-03-30T15:18:45;1.97;;;1.10;;
18532;SDS011;9396;51.510;11.934;2023-03-30T15:21:12;2.10;;;1.00;;
18532;SDS011;9396;51.510;11.934;2023-03-30T15:23:40;2.60;;;1.10;;